Time;durP1;ratioP1;P1;durP2;ratioP2;P2;SDS_P1;SDS_P2;PMS_P1;PMS_P2;Temp;Humidity;BMP_temperature;BMP_pressure;BME280_temperature;BME280_humidity;BME280_pressure;Samples;Min_cycle;Max_cycle;Signal;HPM_P1;HPM_P2
2023/04/02 00:00:09;;;;;;;4.22;2.60;;;;;;;8.66;98.19;99474.41;4836417;29;20327;-69
2023/04/02 00:02:47;;;;;;;4.07;2.78;;;;;;;8.63;98.75;99476.00;4884138;29;20539;-70
2023/04/02 00:05:30;;;;;;;3.22;2.50;;;;;;;8.45;98.94;99454.03;4910669;29;20063;-70
2023/04/02 00:08:17;;;;;;;3.10;2.30;;;;;;;8.60;99.85;99487.09;4895099;29;20060;-69
2023/04/02 00:10:52;;;;;;;2.88;2.38;;;;;;;8.39;100.00;99474.44;4923250;29;20052;-70
2023/04/02 00:13:45;;;;;;;3.65;2.55;;;;;;;8.47;100.00;99498.69;4910395;29;20134;-69
2023/04/02 00:16:15;;;;;;;4.15;2.90;;;;;;;8.29;100.00;99486.13;4854900;29;20050;-69
2023/04/02 00:18:52;;;;;;;3.75;2.50;;;;;;;8.07;100.00;99456.31;4839986;29;20126;-69
2023/04/02 00:21:24;;;;;;;3.28;2.50;;;;;;;8.03;100.00;99444.22;4856365;29;20503;-70
2023/04/02 00:23:53;;;;;;;4.35;2.70;;;;;;;8.27;100.00;99472.34;4861017;29;20123;-68
2023/04/02 00:26:33;;;;;;;3.53;2.63;;;;;;;8.35;100.00;99488.00;4867350;29;20059;-68
2023/04/02 00:29:01;;;;;;;3.53;2.60;;;;;;;8.36;100.00;99488.06;4858139;29;20046;-68
2023/04/02 00:31:27;;;;;;;3.00;2.22;;;;;;;8.46;100.00;99494.41;4883937;29;20036;-68
2023/04/02 00:33:52;;;;;;;2.85;2.28;;;;;;;8.20;99.69;99445.59;4914072;29;20047;-70
2023/04/02 00:36:23;;;;;;;4.82;2.45;;;;;;;8.51;99.36;99497.97;4913872;29;20213;-68
2023/04/02 00:38:49;;;;;;;2.75;2.13;;;;;;;8.42;98.89;99467.69;4928858;29;20697;-69
2023/04/02 00:41:23;;;;;;;3.28;2.38;;;;;;;8.53;98.63;99490.28;4932905;29;20087;-68
2023/04/02 00:43:53;;;;;;;2.95;2.30;;;;;;;8.28;98.19;99440.66;4920199;29;20058;-68
2023/04/02 00:46:22;;;;;;;2.85;2.05;;;;;;;8.51;97.62;99494.50;4932864;29;20147;-68
2023/04/02 00:49:00;;;;;;;3.60;2.47;;;;;;;8.53;97.07;99501.44;4932526;29;20055;-70
2023/04/02 00:51:34;;;;;;;3.22;2.38;;;;;;;8.50;97.23;99496.22;4932706;29;20538;-69
2023/04/02 00:54:05;;;;;;;6.35;2.60;;;;;;;8.50;97.16;99492.75;5004681;28;20041;-69
2023/04/02 00:56:37;;;;;;;2.75;2.10;;;;;;;8.47;97.25;99496.13;5011938;28;20057;-69
2023/04/02 00:59:03;;;;;;;2.92;2.38;;;;;;;8.45;97.23;99489.16;5012850;28;20049;-68
2023/04/02 01:01:35;;;;;;;3.20;2.00;;;;;;;8.17;97.04;99440.34;5012572;28;20048;-68
2023/04/02 01:04:04;;;;;;;2.38;2.00;;;;;;;8.39;97.22;99477.00;5012305;28;20479;-68
2023/04/02 01:06:36;;;;;;;3.77;2.27;;;;;;;8.43;97.09;99481.41;5012465;28;20042;-70
2023/04/02 01:09:04;;;;;;;2.95;2.00;;;;;;;8.40;97.04;99491.63;5012382;28;20034;-68
2023/04/02 01:11:54;;;;;;;4.07;2.22;;;;;;;8.38;97.34;99485.53;5012157;28;20038;-70
2023/04/02 01:14:42;;;;;;;4.10;2.17;;;;;;;8.38;97.42;99481.25;5002557;28;20026;-69
2023/04/02 01:17:29;;;;;;;3.53;2.30;;;;;;;8.36;96.59;99472.63;5011886;28;20053;-68
2023/04/02 01:20:39;;;;;;;2.83;2.00;;;;;;;8.49;95.65;99486.75;5009335;28;20034;-68
2023/04/02 01:23:06;;;;;;;;;;;;;;;8.48;95.67;99494.44;4986532;28;20393;-68
2023/04/02 01:25:45;;;;;;;3.08;1.95;;;;;;;8.43;96.35;99492.53;4990093;28;19969;-69
2023/04/02 01:28:55;;;;;;;2.90;2.10;;;;;;;8.48;95.96;99487.56;4989710;28;20547;-69
2023/04/02 01:31:20;;;;;;;;;;;;;;;8.57;95.13;99503.31;4988335;28;20042;-68
2023/04/02 01:33:46;;;;;;;3.28;2.40;;;;;;;8.37;95.40;99479.53;4989922;28;19920;-70
2023/04/02 01:36:30;;;;;;;4.22;2.05;;;;;;;8.72;95.35;99518.31;4989862;28;20039;-70
2023/04/02 01:39:11;;;;;;;2.70;1.90;;;;;;;8.78;94.73;99516.75;4984561;28;20042;-69
2023/04/02 01:41:47;;;;;;;3.55;2.45;;;;;;;8.90;93.94;99519.66;4986424;28;20728;-69
2023/04/02 01:44:24;;;;;;;3.55;2.30;;;;;;;8.98;93.68;99514.72;4985992;28;20042;-69
2023/04/02 01:46:50;;;;;;;3.92;2.30;;;;;;;8.92;94.18;99519.69;4988169;28;20045;-69
2023/04/02 01:49:21;;;;;;;2.88;2.25;;;;;;;8.91;93.84;99526.56;4989562;28;20031;-70
2023/04/02 01:51:53;;;;;;;3.85;2.10;;;;;;;8.65;94.88;99484.63;4989578;28;20042;-69
2023/04/02 01:54:20;;;;;;;3.97;2.47;;;;;;;8.59;94.51;99485.34;4989325;28;20038;-69
2023/04/02 01:56:46;;;;;;;3.28;2.30;;;;;;;8.77;94.93;99522.72;4989470;28;20050;-69
2023/04/02 01:59:15;;;;;;;2.50;1.95;;;;;;;8.81;94.84;99512.56;4997039;28;20419;-69
2023/04/02 02:01:51;;;;;;;3.72;2.40;;;;;;;8.87;94.83;99527.28;5010789;28;20123;-70
2023/04/02 02:04:17;;;;;;;2.88;2.20;;;;;;;8.86;94.00;99525.53;5008435;28;20041;-70
2023/04/02 02:06:43;;;;;;;2.72;2.20;;;;;;;8.70;94.75;99527.69;5011411;28;20058;-70
2023/04/02 02:09:34;;;;;;;3.58;2.40;;;;;;;8.63;96.52;99533.47;5010892;28;20046;-70
2023/04/02 02:12:02;;;;;;;2.97;2.05;;;;;;;8.62;96.22;99536.00;5008981;28;20048;-69
2023/04/02 02:14:29;;;;;;;2.75;2.10;;;;;;;8.46;96.61;99525.25;5011078;28;20105;-70
2023/04/02 02:17:00;;;;;;;2.92;2.35;;;;;;;8.37;98.07;99532.66;5008886;28;20038;-69
2023/04/02 02:19:57;;;;;;;3.05;2.17;;;;;;;8.43;97.40;99531.13;5010556;28;20122;-69
2023/04/02 02:22:28;;;;;;;3.35;2.38;;;;;;;8.45;97.40;99538.03;5010084;28;20041;-73
2023/04/02 02:24:56;;;;;;;2.72;2.25;;;;;;;8.17;98.04;99522.63;5010958;28;20069;-74
2023/04/02 02:27:21;;;;;;;4.43;3.10;;;;;;;8.23;98.55;99521.94;5008185;28;20034;-73
2023/04/02 02:30:21;;;;;;;3.17;2.22;;;;;;;7.96;97.35;99483.41;5011071;28;20446;-72
2023/04/02 02:32:57;;;;;;;2.70;2.13;;;;;;;8.22;97.13;99528.81;5008605;28;20038;-73
2023/04/02 02:35:30;;;;;;;3.55;2.50;;;;;;;8.29;97.18;99519.56;5008135;28;20029;-73
2023/04/02 02:38:28;;;;;;;4.00;2.40;;;;;;;8.19;97.15;99522.69;4992057;28;20042;-73
2023/04/02 02:40:59;;;;;;;3.25;1.88;;;;;;;7.98;98.53;99510.88;5009553;28;20432;-71
2023/04/02 02:43:25;;;;;;;2.88;2.20;;;;;;;7.88;99.05;99507.16;5006303;28;20077;-71
2023/04/02 02:45:53;;;;;;;2.30;1.98;;;;;;;7.86;99.34;99505.34;5010495;28;20491;-72
2023/04/02 02:48:22;;;;;;;3.50;2.30;;;;;;;7.76;99.68;99494.78;5010758;28;20088;-72
2023/04/02 02:50:49;;;;;;;3.08;2.08;;;;;;;7.73;99.93;99498.94;5010683;28;20108;-72
2023/04/02 02:53:22;;;;;;;2.95;2.00;;;;;;;7.73;99.68;99479.25;5010266;28;20476;-72
2023/04/02 02:55:52;;;;;;;2.28;1.65;;;;;;;7.70;99.12;99476.59;5008259;28;20503;-72
2023/04/02 02:58:22;;;;;;;3.10;2.20;;;;;;;7.84;99.24;99497.59;5010068;28;20049;-73
2023/04/02 03:00:48;;;;;;;2.63;2.10;;;;;;;7.83;99.73;99498.41;5010177;28;20064;-71
2023/04/02 03:03:22;;;;;;;3.03;2.10;;;;;;;7.73;100.00;99504.94;5010012;28;20038;-69
2023/04/02 03:06:06;;;;;;;2.85;2.30;;;;;;;7.78;100.00;99497.41;5010633;28;20046;-68
2023/04/02 03:08:39;;;;;;;2.90;2.10;;;;;;;7.72;100.00;99498.06;5010983;28;20136;-69
2023/04/02 03:11:09;;;;;;;2.97;2.30;;;;;;;7.90;100.00;99497.81;5010764;28;20084;-68
2023/04/02 03:13:37;;;;;;;3.15;2.03;;;;;;;8.04;100.00;99517.94;5010292;28;20037;-68
2023/04/02 03:16:30;;;;;;;3.65;2.25;;;;;;;8.21;98.89;99506.47;5010946;28;20038;-69
2023/04/02 03:19:27;;;;;;;5.72;2.28;;;;;;;8.33;98.04;99517.97;5010725;28;20041;-68
2023/04/02 03:22:11;;;;;;;3.60;2.38;;;;;;;8.34;97.26;99520.56;4969482;28;20137;-68
2023/04/02 03:24:58;;;;;;;5.68;2.20;;;;;;;8.48;97.01;99527.88;4969198;28;20535;-68
2023/04/02 03:27:35;;;;;;;3.70;2.10;;;;;;;8.15;96.50;99501.16;4957984;28;20051;-69
2023/04/02 03:30:28;;;;;;;4.35;1.92;;;;;;;8.25;97.11;99546.88;4958871;28;20063;-68
2023/04/02 03:33:01;;;;;;;5.18;2.53;;;;;;;8.21;97.58;99545.03;4969013;28;20039;-69
2023/04/02 03:35:38;;;;;;;2.83;1.90;;;;;;;8.21;97.49;99542.47;4965514;28;20114;-69
2023/04/02 03:38:12;;;;;;;4.45;2.20;;;;;;;8.18;97.53;99537.22;4933736;29;20054;-69
2023/04/02 03:40:42;;;;;;;3.63;2.50;;;;;;;8.13;97.49;99545.63;4949820;29;20051;-69
2023/04/02 03:43:24;;;;;;;2.95;2.13;;;;;;;8.15;96.90;99547.44;4949731;29;20051;-68
2023/04/02 03:45:58;;;;;;;2.63;2.10;;;;;;;8.13;97.42;99533.63;4933388;29;20043;-68
2023/04/02 03:48:30;;;;;;;3.53;2.15;;;;;;;8.15;97.73;99543.97;4950089;29;20046;-69
2023/04/02 03:51:16;;;;;;;5.10;2.20;;;;;;;8.08;97.87;99542.91;4949784;29;20576;-69
2023/04/02 03:53:43;;;;;;;2.65;1.90;;;;;;;8.02;97.97;99547.84;4949798;29;20035;-69
2023/04/02 03:56:19;;;;;;;3.60;2.20;;;;;;;8.02;97.92;99542.72;4952554;28;20047;-69
2023/04/02 03:58:54;;;;;;;5.35;2.25;;;;;;;8.10;97.10;99549.84;4976712;28;20042;-69
2023/04/02 04:01:28;;;;;;;5.15;2.35;;;;;;;8.19;97.12;99546.69;4994701;28;20077;-68
2023/04/02 04:04:01;;;;;;;3.42;2.10;;;;;;;8.26;96.45;99553.78;4994452;28;20053;-69
2023/04/02 04:06:35;;;;;;;7.22;2.45;;;;;;;8.36;96.81;99562.66;4994439;28;20057;-68
2023/04/02 04:09:35;;;;;;;3.20;2.20;;;;;;;8.46;96.23;99561.28;4994710;28;20045;-69
2023/04/02 04:12:25;;;;;;;4.50;2.85;;;;;;;8.54;95.58;99554.66;4994473;28;20456;-69
2023/04/02 04:15:17;;;;;;;3.45;2.30;;;;;;;8.53;94.93;99542.59;4994094;28;20385;-68
2023/04/02 04:17:52;;;;;;;4.20;2.70;;;;;;;8.73;93.63;99570.63;4994361;28;20080;-69
2023/04/02 04:20:26;;;;;;;4.25;2.45;;;;;;;8.51;93.79;99539.13;4994544;28;20121;-69
2023/04/02 04:22:54;;;;;;;3.28;2.17;;;;;;;8.62;93.69;99541.16;5008420;28;20659;-69
2023/04/02 04:25:32;;;;;;;4.82;2.33;;;;;;;8.89;93.51;99571.97;4993993;28;20113;-69
2023/04/02 04:28:21;;;;;;;3.53;2.25;;;;;;;8.94;93.04;99580.69;4993955;28;20038;-68
2023/04/02 04:31:00;;;;;;;2.60;1.90;;;;;;;9.03;92.34;99582.66;4994330;28;20038;-69
2023/04/02 04:33:49;;;;;;;3.72;2.30;;;;;;;9.06;92.48;99586.19;4994093;28;20034;-69
2023/04/02 04:36:32;;;;;;;3.38;2.00;;;;;;;9.06;92.55;99580.19;4952824;28;20042;-69
2023/04/02 04:39:24;;;;;;;4.85;2.35;;;;;;;8.83;93.22;99541.75;4952639;29;20491;-68
2023/04/02 04:41:52;;;;;;;4.57;2.88;;;;;;;8.91;92.23;99549.72;4952480;29;20039;-69
2023/04/02 04:44:24;;;;;;;8.35;2.25;;;;;;;8.89;92.40;99575.41;4952684;29;20102;-68
2023/04/02 04:47:23;;;;;;;3.80;2.17;;;;;;;8.75;93.60;99589.59;4952603;29;20464;-68
2023/04/02 04:50:20;;;;;;;5.20;2.60;;;;;;;8.68;94.16;99582.50;4933474;29;20615;-68
2023/04/02 04:52:46;;;;;;;4.13;2.17;;;;;;;8.64;93.75;99580.66;4876731;29;20131;-68
2023/04/02 04:55:20;;;;;;;3.25;2.05;;;;;;;8.56;93.54;99591.59;4876604;29;20123;-68
2023/04/02 04:57:48;;;;;;;3.28;1.98;;;;;;;8.58;93.82;99592.53;4876839;29;20080;-69
2023/04/02 05:00:20;;;;;;;3.28;2.15;;;;;;;8.67;93.32;99593.63;4876715;29;20049;-68
2023/04/02 05:02:52;;;;;;;3.40;2.20;;;;;;;8.74;92.25;99593.84;4876398;29;20136;-68
2023/04/02 05:05:23;;;;;;;2.95;2.08;;;;;;;8.78;92.26;99594.81;4876631;29;20092;-68
2023/04/02 05:08:04;;;;;;;4.75;2.30;;;;;;;8.93;92.42;99601.25;4875605;29;20061;-68
2023/04/02 05:10:47;;;;;;;3.53;2.05;;;;;;;9.05;92.34;99604.19;4876390;29;20053;-69
2023/04/02 05:13:20;;;;;;;5.05;2.40;;;;;;;8.87;92.11;99571.03;4893482;29;20046;-69
2023/04/02 05:15:53;;;;;;;14.63;6.00;;;;;;;9.11;91.69;99609.50;4914089;29;20576;-70
2023/04/02 05:18:29;;;;;;;12.20;5.30;;;;;;;9.18;90.99;99614.03;4913858;29;20044;-69
2023/04/02 05:21:20;;;;;;;7.80;4.28;;;;;;;9.16;90.95;99618.25;4913927;29;20047;-69
2023/04/02 05:23:48;;;;;;;3.08;1.90;;;;;;;9.15;89.60;99618.22;4913529;29;20051;-69
2023/04/02 05:26:23;;;;;;;3.05;1.58;;;;;;;9.21;89.66;99618.38;4934035;29;20043;-70
2023/04/02 05:29:05;;;;;;;1.45;1.30;;;;;;;8.99;88.13;99565.38;4957360;28;20047;-69
2023/04/02 05:31:45;;;;;;;4.00;1.90;;;;;;;9.32;88.59;99627.28;4993010;28;20045;-69
2023/04/02 05:34:12;;;;;;;1.70;1.50;;;;;;;9.38;89.30;99630.03;4992778;28;20043;-69
2023/04/02 05:36:38;;;;;;;2.30;1.65;;;;;;;9.39;89.09;99625.75;4992954;28;20061;-70
2023/04/02 05:39:09;;;;;;;4.85;2.63;;;;;;;9.48;91.02;99631.16;5015115;28;20041;-69
2023/04/02 05:41:46;;;;;;;3.35;2.10;;;;;;;9.40;91.10;99627.50;5031132;28;20473;-69
2023/04/02 05:44:20;;;;;;;3.28;1.70;;;;;;;9.40;90.57;99627.50;5032220;28;20073;-69
2023/04/02 05:46:55;;;;;;;4.43;2.10;;;;;;;9.42;90.65;99624.94;5026924;28;20038;-71
2023/04/02 05:50:06;;;;;;;2.60;2.00;;;;;;;9.42;91.44;99615.53;5001440;28;20034;-70
2023/04/02 05:52:38;;;;;;;5.53;2.38;;;;;;;9.48;91.49;99625.13;4970718;28;20066;-70
2023/04/02 05:55:11;;;;;;;5.78;2.63;;;;;;;9.51;92.29;99626.09;4972073;28;20417;-70
2023/04/02 05:57:45;;;;;;;2.60;2.15;;;;;;;9.56;90.38;99626.22;4970743;28;20046;-70
2023/04/02 06:00:24;;;;;;;2.80;1.70;;;;;;;9.53;90.56;99626.13;4970736;28;20074;-70
2023/04/02 06:02:58;;;;;;;3.25;1.92;;;;;;;9.43;88.49;99604.38;4970384;28;20081;-70
2023/04/02 06:05:37;;;;;;;2.83;1.63;;;;;;;9.52;87.68;99621.78;4970326;28;20599;-70
2023/04/02 06:08:44;;;;;;;4.87;2.00;;;;;;;9.64;88.26;99619.56;4970524;28;20074;-69
2023/04/02 06:11:15;;;;;;;2.85;1.80;;;;;;;9.76;87.84;99626.75;4951154;29;20330;-70
2023/04/02 06:13:40;;;;;;;3.47;1.75;;;;;;;9.75;86.78;99614.69;4950768;29;20043;-70
2023/04/02 06:16:06;;;;;;;3.38;1.70;;;;;;;9.74;86.45;99618.09;4950901;29;20054;-70
2023/04/02 06:18:35;;;;;;;2.72;1.63;;;;;;;9.83;86.63;99620.03;4950772;28;20039;-69
2023/04/02 06:21:02;;;;;;;2.72;1.50;;;;;;;9.92;85.30;99627.13;4950996;29;20072;-70
2023/04/02 06:23:42;;;;;;;2.78;2.05;;;;;;;10.00;85.55;99623.94;4950853;29;20194;-70
2023/04/02 06:26:29;;;;;;;3.70;1.77;;;;;;;10.03;85.31;99621.44;4950586;29;20133;-70
2023/04/02 06:29:01;;;;;;;2.50;1.70;;;;;;;10.03;85.54;99623.13;4968339;28;20069;-70
2023/04/02 06:31:51;;;;;;;2.90;1.60;;;;;;;10.11;85.33;99626.78;4969987;28;20130;-70
2023/04/02 06:34:17;;;;;;;;;;;;;;;10.18;84.25;99630.38;4970344;28;20042;-69
2023/04/02 06:36:44;;;;;;;1.48;1.30;;;;;;;10.14;83.09;99628.56;4969746;28;20351;-70
2023/04/02 06:39:17;;;;;;;2.47;1.60;;;;;;;10.26;84.55;99628.88;4969870;28;20046;-70
2023/04/02 06:41:42;;;;;;;2.53;1.48;;;;;;;10.46;84.08;99631.09;4969824;28;20046;-69
2023/04/02 06:44:17;;;;;;;1.88;1.48;;;;;;;10.48;81.01;99634.56;4969820;28;20053;-70
2023/04/02 06:46:47;;;;;;;3.35;1.60;;;;;;;10.63;81.68;99640.13;4970338;28;20050;-70
2023/04/02 06:49:20;;;;;;;2.65;1.52;;;;;;;10.73;81.11;99625.72;5006659;28;20065;-70
2023/04/02 06:51:48;;;;;;;2.83;1.30;;;;;;;11.00;78.07;99650.38;4991942;28;20042;-70
2023/04/02 06:54:16;;;;;;;2.30;1.30;;;;;;;11.22;77.94;99643.97;4991717;28;20479;-70
2023/04/02 06:56:50;;;;;;;1.92;1.42;;;;;;;11.40;78.75;99651.25;4991720;28;20101;-70
2023/04/02 06:59:16;;;;;;;1.88;1.40;;;;;;;11.67;77.74;99652.63;4991420;28;20045;-70
2023/04/02 07:02:17;;;;;;;1.80;1.10;;;;;;;11.93;77.00;99658.28;4991341;28;20042;-70
2023/04/02 07:04:42;;;;;;;1.02;0.93;;;;;;;12.02;72.31;99682.63;4969315;28;20042;-70
2023/04/02 07:07:08;;;;;;;5.78;1.27;;;;;;;12.07;75.54;99674.09;4969303;28;20160;-70
2023/04/02 07:09:33;;;;;;;4.32;1.67;;;;;;;12.06;71.69;99682.72;4969356;28;20122;-70
2023/04/02 07:11:58;;;;;;;1.90;0.98;;;;;;;12.23;73.68;99674.38;4969182;28;20042;-70
2023/04/02 07:14:24;;;;;;;3.63;1.13;;;;;;;12.43;72.72;99669.53;4967327;28;20568;-71
2023/04/02 07:16:50;;;;;;;1.38;0.90;;;;;;;12.45;69.66;99676.47;4967843;28;20047;-70
2023/04/02 07:19:19;;;;;;;2.35;1.00;;;;;;;12.54;69.03;99674.88;4969339;28;20043;-70
2023/04/02 07:21:45;;;;;;;2.30;1.10;;;;;;;12.72;69.92;99674.28;4969304;28;20066;-70
2023/04/02 07:24:10;;;;;;;1.20;0.98;;;;;;;12.70;68.09;99670.81;4969245;28;20552;-69
2023/04/02 07:26:36;;;;;;;2.17;0.88;;;;;;;12.57;65.91;99669.75;4968881;28;20516;-70
2023/04/02 07:29:05;;;;;;;2.78;0.95;;;;;;;12.70;67.39;99684.63;4968789;28;20547;-70
2023/04/02 07:31:31;;;;;;;1.23;0.95;;;;;;;12.75;65.62;99690.75;4969113;28;20159;-69
2023/04/02 07:33:58;;;;;;;2.15;1.10;;;;;;;12.84;67.43;99689.16;4953085;28;20129;-70
2023/04/02 07:36:26;;;;;;;1.95;1.10;;;;;;;12.92;68.06;99691.03;4969139;28;20039;-69
2023/04/02 07:38:51;;;;;;;3.45;1.00;;;;;;;12.71;66.56;99686.38;4969045;28;20444;-70
2023/04/02 07:41:18;;;;;;;2.50;1.00;;;;;;;12.81;65.91;99715.00;4977382;28;20039;-70
2023/04/02 07:43:44;;;;;;;1.58;1.15;;;;;;;12.91;67.72;99699.63;4990426;28;20476;-70
2023/04/02 07:46:10;;;;;;;1.60;1.02;;;;;;;12.94;66.73;99696.22;4990842;28;20117;-69
2023/04/02 07:48:36;;;;;;;1.75;1.23;;;;;;;12.57;65.93;99626.63;4990930;28;20065;-70
2023/04/02 07:51:04;;;;;;;2.05;1.15;;;;;;;12.97;67.09;99683.28;4990754;28;20066;-70
2023/04/02 07:53:37;;;;;;;2.05;1.00;;;;;;;13.19;66.84;99678.44;4990866;28;20046;-70
2023/04/02 07:56:04;;;;;;;1.65;1.05;;;;;;;13.28;64.83;99691.50;4990889;28;20097;-70
2023/04/02 07:58:32;;;;;;;2.20;1.10;;;;;;;13.13;65.41;99674.03;4990985;28;20069;-70
2023/04/02 08:00:59;;;;;;;2.45;1.15;;;;;;;13.11;65.62;99657.59;4990822;28;20118;-70
2023/04/02 08:03:25;;;;;;;2.22;1.10;;;;;;;13.40;66.15;99706.38;4990924;28;20129;-70
2023/04/02 08:05:55;;;;;;;3.50;1.10;;;;;;;13.47;65.03;99694.38;4990489;28;20496;-70
2023/04/02 08:08:22;;;;;;;2.90;1.33;;;;;;;13.56;66.62;99702.28;4990684;28;20580;-70
2023/04/02 08:10:48;;;;;;;3.22;1.35;;;;;;;13.30;66.10;99665.63;4990468;28;20109;-70
2023/04/02 08:13:15;;;;;;;5.68;1.70;;;;;;;13.66;67.67;99695.47;4990510;28;20041;-70
2023/04/02 08:15:41;;;;;;;1.70;1.20;;;;;;;13.67;65.83;99705.88;4990831;28;20125;-70
2023/04/02 08:18:06;;;;;;;1.77;1.02;;;;;;;13.62;66.17;99697.16;4990776;28;20038;-70
2023/04/02 08:20:32;;;;;;;2.42;1.20;;;;;;;13.58;64.96;99697.97;4990725;28;20065;-70
2023/04/02 08:22:57;;;;;;;1.88;0.90;;;;;;;13.52;64.57;99698.78;4990509;28;20030;-70
2023/04/02 08:25:23;;;;;;;2.78;1.30;;;;;;;13.59;65.94;99698.00;4990739;28;20102;-70
2023/04/02 08:27:49;;;;;;;2.55;1.27;;;;;;;13.69;65.96;99701.53;4989328;28;20035;-72
2023/04/02 08:30:16;;;;;;;2.25;1.10;;;;;;;13.69;65.22;99709.31;4990748;28;20030;-73
2023/04/02 08:32:42;;;;;;;2.17;1.10;;;;;;;13.78;65.85;99699.94;4990256;28;20038;-72
2023/04/02 08:35:10;;;;;;;1.80;1.17;;;;;;;13.53;66.74;99658.13;4990240;28;20093;-72
2023/04/02 08:37:36;;;;;;;2.35;1.20;;;;;;;13.90;64.04;99700.06;4989881;28;20054;-72
2023/04/02 08:40:03;;;;;;;2.80;1.48;;;;;;;13.91;63.16;99699.22;4990676;28;20049;-72
2023/04/02 08:42:43;;;;;;;3.47;1.20;;;;;;;13.93;62.82;99710.47;4992250;28;20026;-72
2023/04/02 08:45:20;;;;;;;1.52;1.10;;;;;;;13.94;61.90;99686.25;4993913;28;20038;-72
2023/04/02 08:47:47;;;;;;;1.80;1.17;;;;;;;14.15;62.17;99710.72;4993914;28;20038;-72
2023/04/02 08:50:30;;;;;;;2.78;1.48;;;;;;;14.20;61.71;99714.22;4994094;28;20046;-72
2023/04/02 08:52:56;;;;;;;3.50;1.58;;;;;;;14.20;61.88;99698.63;4993769;28;20045;-71
2023/04/02 08:55:47;;;;;;;2.83;1.60;;;;;;;14.38;61.21;99708.31;4993738;28;20463;-71
2023/04/02 08:58:31;;;;;;;1.25;1.10;;;;;;;14.61;60.13;99708.53;4993452;28;20034;-71
2023/04/02 09:01:01;;;;;;;1.88;1.10;;;;;;;14.56;60.34;99698.09;4993597;28;20393;-71
2023/04/02 09:03:35;;;;;;;2.28;1.10;;;;;;;14.63;61.76;99678.25;4993397;28;20393;-71
2023/04/02 09:06:02;;;;;;;2.65;1.23;;;;;;;14.84;59.92;99705.25;4993665;28;20061;-71
2023/04/02 09:08:31;;;;;;;3.50;1.05;;;;;;;14.72;59.63;99696.53;5007699;28;20050;-71
2023/04/02 09:11:13;;;;;;;1.85;0.95;;;;;;;14.91;58.93;99714.00;4993424;28;20042;-71
2023/04/02 09:13:48;;;;;;;2.08;1.25;;;;;;;14.96;58.85;99707.09;4993272;28;20513;-70
2023/04/02 09:16:16;;;;;;;1.65;0.93;;;;;;;14.65;57.70;99673.94;4993301;28;20121;-70
2023/04/02 09:18:43;;;;;;;2.00;1.10;;;;;;;15.12;58.97;99697.66;5007471;28;20633;-70
2023/04/02 09:21:19;;;;;;;1.40;0.93;;;;;;;15.31;57.02;99694.28;4993007;28;20038;-71
2023/04/02 09:23:45;;;;;;;2.63;1.50;;;;;;;15.26;56.30;99689.94;4993292;28;20121;-71
2023/04/02 09:26:40;;;;;;;2.05;1.10;;;;;;;15.41;54.58;99700.41;4993329;28;20113;-70
2023/04/02 09:29:12;;;;;;;2.42;1.00;;;;;;;15.67;55.07;99689.25;4971063;28;20039;-71
2023/04/02 09:32:05;;;;;;;3.85;1.00;;;;;;;15.78;58.45;99678.88;4970896;28;20418;-70
2023/04/02 09:34:33;;;;;;;1.30;0.90;;;;;;;16.07;54.97;99681.56;4957569;28;20043;-70
2023/04/02 09:37:08;;;;;;;1.30;1.00;;;;;;;15.96;53.56;99647.72;4971301;28;20047;-71
2023/04/02 09:39:34;;;;;;;1.95;1.05;;;;;;;16.34;52.12;99680.72;4970953;28;20520;-70
2023/04/02 09:42:27;;;;;;;1.10;0.90;;;;;;;16.46;50.81;99669.47;4970877;28;20038;-71
2023/04/02 09:45:12;;;;;;;2.08;0.80;;;;;;;16.45;48.53;99662.50;4971201;28;20034;-70
2023/04/02 09:47:39;;;;;;;1.23;0.90;;;;;;;16.60;48.67;99671.19;4971026;28;20141;-70
2023/04/02 09:50:31;;;;;;;1.35;0.90;;;;;;;16.86;48.96;99662.47;4970739;28;20038;-70
2023/04/02 09:52:58;;;;;;;1.25;0.90;;;;;;;16.92;47.66;99658.16;4931910;29;20054;-70
2023/04/02 09:55:27;;;;;;;1.15;0.77;;;;;;;17.03;48.28;99652.03;4932321;29;20095;-71
2023/04/02 09:58:12;;;;;;;1.02;0.70;;;;;;;17.34;48.94;99651.94;4932124;29;20043;-71
2023/04/02 10:00:47;;;;;;;1.00;0.60;;;;;;;17.61;46.93;99659.63;4932082;29;20051;-71
2023/04/02 10:03:24;;;;;;;1.50;0.80;;;;;;;17.76;45.83;99657.84;4932426;29;20059;-70
2023/04/02 10:06:08;;;;;;;1.95;0.70;;;;;;;17.68;45.99;99643.94;4957916;28;20121;-70
2023/04/02 10:08:35;;;;;;;2.22;0.95;;;;;;;17.88;45.08;99641.22;4989919;28;20121;-70
2023/04/02 10:11:11;;;;;;;1.38;0.90;;;;;;;17.83;42.71;99648.22;4973369;28;20034;-70
2023/04/02 10:13:50;;;;;;;0.70;0.70;;;;;;;17.81;39.94;99618.63;4989263;28;20081;-70
2023/04/02 10:16:39;;;;;;;0.70;0.60;;;;;;;17.47;38.21;99606.66;4989710;28;20042;-70
2023/04/02 10:19:26;;;;;;;1.70;0.50;;;;;;;17.63;37.58;99628.31;4988715;28;20104;-69
2023/04/02 10:21:53;;;;;;;1.67;0.65;;;;;;;17.60;39.66;99637.03;4989619;28;20073;-69
2023/04/02 10:24:19;;;;;;;0.90;0.50;;;;;;;17.57;40.69;99637.06;4988828;28;20046;-70
2023/04/02 10:27:03;;;;;;;1.40;0.60;;;;;;;18.25;44.21;99626.16;4973148;28;20046;-69
2023/04/02 10:30:04;;;;;;;2.25;0.75;;;;;;;18.21;40.18;99624.47;4996764;28;20069;-69
2023/04/02 10:32:36;;;;;;;0.63;0.40;;;;;;;17.92;37.60;99624.66;4969914;28;20051;-69
2023/04/02 10:35:07;;;;;;;1.88;0.50;;;;;;;17.76;39.72;99623.91;4969835;28;20070;-69
2023/04/02 10:37:41;;;;;;;0.80;0.80;;;;;;;17.39;38.88;99624.94;4969882;28;20114;-69
2023/04/02 10:40:10;;;;;;;0.50;0.40;;;;;;;17.22;37.87;99630.25;4969974;28;20174;-69
2023/04/02 10:42:57;;;;;;;0.88;0.52;;;;;;;17.27;37.28;99630.22;4969676;28;20073;-69
2023/04/02 10:45:37;;;;;;;1.35;0.40;;;;;;;17.57;36.84;99621.38;4957832;28;20094;-73
2023/04/02 10:48:19;;;;;;;1.48;0.70;;;;;;;17.82;40.13;99616.03;4958654;28;20053;-71
2023/04/02 10:51:10;;;;;;;3.33;1.27;;;;;;;18.01;38.10;99584.59;4969237;28;20567;-70
2023/04/02 10:53:56;;;;;;;3.28;1.75;;;;;;;18.51;38.78;99614.63;4950262;29;20529;-70
2023/04/02 10:56:22;;;;;;;1.42;1.00;;;;;;;18.84;40.75;99611.69;4955462;28;20039;-71
2023/04/02 10:58:57;;;;;;;17.02;9.90;;;;;;;18.80;35.49;99571.63;4958563;28;20039;-70
2023/04/02 11:01:28;;;;;;;13.77;7.10;;;;;;;18.84;35.77;99583.81;4958680;28;20039;-73
2023/04/02 11:04:04;;;;;;;2.47;1.42;;;;;;;19.31;35.32;99607.69;4958161;28;20146;-70
2023/04/02 11:06:48;;;;;;;20.98;11.90;;;;;;;18.92;34.16;99597.69;4952017;28;20059;-70
2023/04/02 11:09:20;;;;;;;2.28;1.52;;;;;;;18.58;35.72;99608.47;4969133;28;20038;-69
2023/04/02 11:11:51;;;;;;;9.63;3.10;;;;;;;18.57;35.14;99577.13;4991195;28;20038;-69
2023/04/02 11:14:24;;;;;;;16.02;8.25;;;;;;;19.10;35.10;99616.66;4997884;28;20060;-69
2023/04/02 11:16:53;;;;;;;6.85;1.58;;;;;;;18.73;34.75;99617.91;5008195;28;20056;-70
2023/04/02 11:19:21;;;;;;;2.75;1.40;;;;;;;18.91;34.62;99610.78;5007598;28;20030;-70
2023/04/02 11:21:55;;;;;;;0.77;0.50;;;;;;;18.98;36.15;99606.34;5010227;28;20037;-70
2023/04/02 11:24:32;;;;;;;1.60;0.70;;;;;;;19.36;35.87;99602.38;5008412;28;20120;-70
2023/04/02 11:27:02;;;;;;;2.15;1.00;;;;;;;19.37;33.87;99577.97;5008702;28;20057;-71
2023/04/02 11:29:33;;;;;;;1.58;0.75;;;;;;;19.62;36.02;99604.66;5006128;28;20916;-69
2023/04/02 11:32:20;;;;;;;2.28;1.15;;;;;;;19.86;33.77;99595.63;4999083;28;20034;-70
2023/04/02 11:34:45;;;;;;;0.95;0.63;;;;;;;20.03;33.21;99597.94;5004142;28;20121;-70
2023/04/02 11:37:30;;;;;;;0.45;0.43;;;;;;;20.11;33.61;99596.97;4990557;28;20121;-70
2023/04/02 11:40:00;;;;;;;0.68;0.63;;;;;;;20.36;32.83;99595.69;4990587;28;20093;-69
2023/04/02 11:42:44;;;;;;;2.72;0.80;;;;;;;20.07;34.45;99596.16;4989858;28;20053;-71
2023/04/02 11:45:42;;;;;;;1.23;0.70;;;;;;;20.48;33.35;99583.25;4990436;28;20086;-70
2023/04/02 11:48:16;;;;;;;0.85;0.75;;;;;;;19.79;33.37;99595.69;4983365;28;20090;-68
2023/04/02 11:50:43;;;;;;;0.98;0.60;;;;;;;19.70;33.52;99588.81;4968547;28;20035;-69
2023/04/02 11:53:12;;;;;;;1.25;0.63;;;;;;;19.45;32.26;99588.31;4951784;28;20073;-68
2023/04/02 11:56:06;;;;;;;0.87;0.60;;;;;;;19.86;32.94;99582.53;4952200;28;20137;-69
2023/04/02 11:58:53;;;;;;;0.82;0.65;;;;;;;20.27;33.19;99576.63;4929968;29;20098;-69
2023/04/02 12:01:42;;;;;;;1.55;0.90;;;;;;;19.87;33.54;99572.91;4930227;29;20047;-71
2023/04/02 12:04:18;;;;;;;;;;;;;;;19.85;33.81;99567.69;4939126;28;20048;-68
2023/04/02 12:06:55;;;;;;;3.50;1.08;;;;;;;19.88;34.97;99551.06;4932318;29;19923;-68
2023/04/02 12:09:30;;;;;;;1.02;0.73;;;;;;;20.44;33.59;99571.09;4929892;29;20079;-68
2023/04/02 12:11:58;;;;;;;1.55;0.60;;;;;;;20.60;32.37;99563.78;4929569;29;20122;-68
2023/04/02 12:14:47;;;;;;;0.80;0.70;;;;;;;20.91;32.45;99565.84;4929795;29;20046;-69